createdAt,value
2023-02-20T00:06:17.801Z,11.3
2023-02-20T00:08:22.674Z,8.6
2023-02-20T00:10:24.332Z,8.7
2023-02-20T00:16:29.298Z,10.1
2023-02-20T00:18:30.931Z,9
2023-02-20T00:20:32.591Z,6.1
2023-02-20T00:22:37.489Z,11.8
2023-02-20T00:32:45.801Z,17.7
2023-02-20T00:34:47.460Z,9.6
2023-02-20T00:38:54.007Z,9.2
2023-02-20T00:40:55.664Z,10.3
2023-02-20T00:42:57.345Z,15.9
2023-02-20T00:44:58.997Z,7.8
2023-02-20T00:47:00.687Z,12.4
2023-02-20T00:49:02.344Z,8.5
2023-02-20T00:51:07.238Z,12.8
2023-02-20T00:53:08.916Z,9.7
2023-02-20T00:55:10.561Z,10.6
2023-02-20T00:56:13.386Z,17
2023-02-20T00:58:14.700Z,18.1
2023-02-20T01:00:16.378Z,9.8
2023-02-20T01:04:22.921Z,13.2
2023-02-20T01:08:26.274Z,11.2
2023-02-20T01:10:27.951Z,12.6
2023-02-20T01:12:29.621Z,18.6
2023-02-20T01:14:31.301Z,14.6
2023-02-20T01:16:33.019Z,14.5
2023-02-20T01:18:37.852Z,8.9
2023-02-20T01:20:41.086Z,15.6
2023-02-20T01:22:42.723Z,14.2
2023-02-20T01:24:44.387Z,15.4
2023-02-20T01:26:46.072Z,23.7
2023-02-20T01:28:47.742Z,18.1
2023-02-20T01:30:49.425Z,11.9
2023-02-20T01:32:54.323Z,10.6
2023-02-20T01:41:01.004Z,14.7
2023-02-20T01:43:02.690Z,19
2023-02-20T01:45:07.128Z,12.1
2023-02-20T01:49:10.925Z,20.2
2023-02-20T01:51:12.584Z,14.2
2023-02-20T01:52:15.048Z,12.7
2023-02-20T01:54:16.714Z,17.5
2023-02-20T01:56:18.367Z,13.9
2023-02-20T01:58:20.043Z,18.7
2023-02-20T02:00:24.976Z,14.4
2023-02-20T02:02:26.618Z,18
2023-02-20T02:04:28.261Z,19.3
2023-02-20T02:06:29.994Z,12.4
2023-02-20T02:08:31.600Z,15.1
2023-02-20T02:10:33.237Z,11.2
2023-02-20T02:12:34.892Z,19.8
2023-02-20T02:18:43.095Z,20
2023-02-20T02:20:44.782Z,13.1
2023-02-20T02:22:46.397Z,15.8
2023-02-20T02:30:56.358Z,17.9
2023-02-20T02:32:57.984Z,24.4
2023-02-20T02:34:59.622Z,21.2
2023-02-20T02:37:01.270Z,20
2023-02-20T02:39:02.938Z,15.4
2023-02-20T02:41:04.601Z,18.5
2023-02-20T02:43:09.480Z,17.2
2023-02-20T02:45:11.166Z,18.8
2023-02-20T02:47:12.813Z,19.4
2023-02-20T02:48:15.274Z,21.7
2023-02-20T02:50:16.919Z,16.8
2023-02-20T02:52:18.587Z,25.9
2023-02-20T02:54:20.244Z,24.3
2023-02-20T02:58:26.781Z,24.3
2023-02-20T03:00:28.455Z,22.8
2023-02-20T03:06:33.503Z,22.6
2023-02-20T03:08:35.130Z,26.7
2023-02-20T03:10:40.017Z,30.8
2023-02-20T03:12:41.702Z,18.7
2023-02-20T03:14:43.368Z,27.8
2023-02-20T03:16:45.113Z,37.6
2023-02-20T03:18:46.715Z,26.5
2023-02-20T03:20:48.409Z,24.1
2023-02-20T03:22:50.093Z,29.5
2023-02-20T03:24:54.991Z,24.6
2023-02-20T03:26:56.647Z,27.1
2023-02-20T03:39:09.937Z,14.2
2023-02-20T03:41:11.630Z,19.7
2023-02-20T03:43:13.277Z,37.2
2023-02-20T03:45:41.949Z,21.7
2023-02-20T03:47:43.586Z,35.7
2023-02-20T03:49:45.276Z,25
2023-02-20T03:51:50.186Z,25.9
2023-02-20T03:57:55.227Z,35.6
2023-02-20T03:59:56.917Z,27.7
2023-02-20T04:01:58.648Z,32.6
2023-02-20T04:06:05.188Z,24.8
2023-02-20T04:08:06.881Z,46.5
2023-02-20T04:10:08.568Z,28.5
2023-02-20T04:12:10.280Z,34.3
2023-02-20T04:18:15.306Z,26.2
2023-02-20T04:26:25.255Z,34.4
2023-02-20T04:28:26.956Z,26.1
2023-02-20T04:30:28.724Z,26.2
2023-02-20T04:34:35.254Z,35.2
2023-02-20T04:38:38.605Z,46.8
2023-02-20T04:39:41.109Z,59.4
2023-02-20T04:43:44.482Z,23.5
2023-02-20T04:45:46.215Z,32.9
2023-02-20T04:47:51.100Z,22.7
2023-02-20T04:55:57.858Z,23.5
2023-02-20T04:57:59.565Z,27.5
2023-02-20T05:12:14.689Z,27.4
2023-02-20T05:14:16.398Z,38.5
2023-02-20T05:16:21.360Z,32.6
2023-02-20T05:20:24.750Z,20.5
2023-02-20T05:22:26.453Z,26.7
2023-02-20T05:24:28.138Z,32.5
2023-02-20T05:26:29.901Z,16.8
2023-02-20T05:28:31.567Z,32.5
2023-02-20T05:30:36.560Z,28.9
2023-02-20T05:32:38.213Z,30.3
2023-02-20T05:34:39.910Z,31.2
2023-02-20T05:35:42.374Z,30.4
2023-02-20T05:37:43.980Z,42.9
2023-02-20T05:39:45.683Z,33.9
2023-02-20T05:41:47.381Z,30.5
2023-02-20T05:43:52.307Z,31.2
2023-02-20T05:45:54.009Z,37.8
2023-02-20T05:47:55.724Z,23.3
2023-02-20T05:49:57.419Z,35.1
2023-02-20T05:54:00.824Z,28.2
2023-02-20T05:56:02.526Z,29.6
2023-02-20T05:58:07.473Z,36.9
2023-02-20T06:00:09.159Z,33.9
2023-02-20T06:02:10.830Z,34.7
2023-02-20T06:04:12.604Z,41.5
2023-02-20T06:06:14.406Z,45
2023-02-20T06:08:15.939Z,39.8
2023-02-20T06:10:17.648Z,25.6
2023-02-20T06:12:22.582Z,45.6
2023-02-20T06:16:26.070Z,28.1
2023-02-20T06:18:27.688Z,27.4
2023-02-20T06:20:29.410Z,36.9
2023-02-20T06:22:31.119Z,34.6
2023-02-20T06:26:37.778Z,21.2
2023-02-20T06:28:39.473Z,10.4
2023-02-20T06:30:41.285Z,25.1
2023-02-20T06:33:45.351Z,42.7
2023-02-20T06:35:47.065Z,16.2
2023-02-20T06:37:48.783Z,15.4
2023-02-20T06:39:53.712Z,26.3
2023-02-20T06:41:55.439Z,24
2023-02-20T06:43:57.132Z,4.1
2023-02-20T06:45:58.845Z,18.7
2023-02-20T06:48:00.570Z,43.8
2023-02-20T06:50:02.281Z,23.9
2023-02-20T06:52:04.387Z,21.7
2023-02-20T06:54:08.957Z,18.8
2023-02-20T06:56:11.031Z,31.1
2023-02-20T06:58:12.385Z,14.9
2023-02-20T07:00:14.097Z,25.5
2023-02-20T07:02:15.882Z,34.1
2023-02-20T07:04:17.527Z,31.6
2023-02-20T07:06:19.209Z,28
2023-02-20T07:08:24.136Z,37.3
2023-02-20T07:10:25.856Z,32.8
2023-02-20T07:12:29.094Z,26.1
2023-02-20T07:14:30.772Z,25.2
2023-02-20T07:16:32.484Z,18.4
2023-02-20T07:18:34.188Z,24
2023-02-20T07:20:35.913Z,20.4
2023-02-20T07:22:40.846Z,26.4
2023-02-20T07:24:42.550Z,23.8
2023-02-20T07:26:44.285Z,12.8
2023-02-20T07:29:12.888Z,24.4
2023-02-20T07:31:14.614Z,26.7
2023-02-20T07:33:16.292Z,6.8
2023-02-20T07:35:21.248Z,14.9
2023-02-20T07:37:22.982Z,4.9
2023-02-20T07:39:24.664Z,16.8
2023-02-20T07:41:26.368Z,21.5
2023-02-20T07:43:28.093Z,18.5
2023-02-20T07:45:29.836Z,12.4
2023-02-20T07:47:31.567Z,25.2
2023-02-20T07:49:36.479Z,27.4
2023-02-20T07:51:38.202Z,24.1
2023-02-20T07:53:39.902Z,11.3
2023-02-20T07:55:41.614Z,21.5
2023-02-20T07:57:43.354Z,17.5
2023-02-20T07:59:45.060Z,15.2
2023-02-20T08:03:51.718Z,12.9
2023-02-20T08:05:53.596Z,29.8
2023-02-20T08:07:55.165Z,20.8
2023-02-20T08:09:56.886Z,31.2
2023-02-20T08:11:58.599Z,24.6
2023-02-20T08:14:00.330Z,22
2023-02-20T08:16:02.082Z,35.4
2023-02-20T08:18:15.608Z,33.7
2023-02-20T08:20:08.743Z,25.9
2023-02-20T08:22:10.428Z,28
2023-02-20T08:23:12.922Z,26
2023-02-20T08:37:28.236Z,25.1
2023-02-20T08:39:29.965Z,21.4
2023-02-20T08:45:38.379Z,23.6
2023-02-20T08:47:40.104Z,29.4
2023-02-20T08:51:43.572Z,21.1
2023-02-20T08:53:45.290Z,17.1
2023-02-20T08:55:47.005Z,5.3
2023-02-20T08:57:48.789Z,18.8
2023-02-20T08:59:53.705Z,15.6
2023-02-20T09:01:55.422Z,14.3
2023-02-20T09:03:57.164Z,19.7
2023-02-20T09:05:58.903Z,15.8
2023-02-20T09:08:00.641Z,12
2023-02-20T09:10:02.380Z,17.8
2023-02-20T09:12:04.099Z,18.4
2023-02-20T09:14:09.069Z,22.6
2023-02-20T09:16:11.208Z,10
2023-02-20T09:18:12.545Z,25.9
2023-02-20T09:29:26.943Z,20.2
2023-02-20T09:33:30.397Z,12.7
2023-02-20T09:39:35.603Z,13.9
2023-02-20T09:43:42.322Z,18.6
2023-02-20T09:49:47.502Z,19.9
2023-02-20T09:51:49.239Z,15.7
2023-02-20T09:53:50.959Z,19.8
2023-02-20T09:57:57.676Z,16.1
2023-02-20T10:00:01.799Z,14.4
2023-02-20T10:04:02.857Z,24.4
2023-02-20T10:10:11.282Z,15.2
2023-02-20T10:15:17.256Z,24
2023-02-20T10:17:18.968Z,31.7
2023-02-20T10:19:20.732Z,20.8
2023-02-20T10:21:22.436Z,37.1
2023-02-20T10:23:28.609Z,40.6
2023-02-20T10:25:29.151Z,28.4
2023-02-20T10:27:30.876Z,29.7
2023-02-20T10:29:32.585Z,25.6
2023-02-20T10:35:37.816Z,18.7
2023-02-20T10:43:47.961Z,27.3
2023-02-20T10:45:49.739Z,21.1
2023-02-20T10:47:51.425Z,22.8
2023-02-20T10:49:53.159Z,23
2023-02-20T10:53:59.891Z,16.9
2023-02-20T10:56:01.623Z,14.3
2023-02-20T10:58:03.359Z,21.9
2023-02-20T11:00:05.107Z,14.2
2023-02-20T11:02:06.985Z,15.2
2023-02-20T11:04:08.595Z,12.3
2023-02-20T11:06:13.966Z,12.6
2023-02-20T11:08:15.292Z,18.9
2023-02-20T11:10:17.004Z,13.4
2023-02-20T11:16:49.118Z,19.4
2023-02-20T11:18:54.101Z,9.6
2023-02-20T11:20:55.856Z,15.1
2023-02-20T11:22:57.604Z,7.6
2023-02-20T11:39:14.806Z,21.2
2023-02-20T11:41:16.524Z,20.9
2023-02-20T11:45:20.006Z,19.8
2023-02-20T11:47:25.337Z,16.3
2023-02-20T11:49:27.094Z,20
2023-02-20T11:51:28.864Z,22.6
2023-02-20T11:53:30.573Z,27.1
2023-02-20T11:55:32.341Z,17.1
2023-02-20T11:57:34.090Z,23.5
2023-02-20T11:59:35.794Z,13.6
2023-02-20T12:01:41.896Z,15
2023-02-20T12:05:44.300Z,16.9
2023-02-20T12:06:46.751Z,12.1
2023-02-20T12:08:48.483Z,22.5
2023-02-20T12:10:50.235Z,38.3
2023-02-20T12:12:51.974Z,16.5
2023-02-20T12:14:56.950Z,25.3
2023-02-20T12:16:58.702Z,12.7
2023-02-20T12:21:02.336Z,14.8
2023-02-20T12:23:03.917Z,24.3
2023-02-20T12:25:05.642Z,16.8
2023-02-20T12:27:07.377Z,15.4
2023-02-20T12:29:12.383Z,20.9
2023-02-20T12:31:14.186Z,11.5
2023-02-20T12:33:15.844Z,21
2023-02-20T12:35:17.615Z,21.4
2023-02-20T12:37:19.342Z,19
2023-02-20T12:39:21.076Z,16.2
2023-02-20T12:43:27.834Z,6.3
2023-02-20T12:53:36.577Z,21.2
2023-02-20T12:55:38.406Z,17.2
2023-02-20T12:57:43.257Z,25.7
2023-02-20T12:59:44.973Z,22.3
2023-02-20T13:01:46.761Z,29.6
2023-02-20T13:02:50.755Z,30.1
2023-02-20T13:04:52.470Z,17.2
2023-02-20T13:06:54.278Z,23.6
2023-02-20T13:08:55.953Z,19.1
2023-02-20T13:11:00.950Z,21.2
2023-02-20T13:13:02.707Z,27.5
2023-02-20T13:15:04.423Z,28.1
2023-02-20T13:17:06.177Z,22.1
2023-02-20T13:19:07.919Z,45.7
2023-02-20T13:21:09.648Z,18.9
2023-02-20T13:23:11.392Z,18.3
2023-02-20T13:25:16.366Z,31.8
2023-02-20T13:27:18.126Z,24.4
2023-02-20T13:29:22.598Z,22.9
2023-02-20T13:31:21.646Z,23.5
2023-02-20T13:33:23.376Z,24.8
2023-02-20T13:35:25.077Z,19.6
2023-02-20T13:37:26.841Z,22.7
2023-02-20T13:41:33.580Z,22.3
2023-02-20T13:43:35.333Z,31.9
2023-02-20T13:51:42.324Z,22.4
2023-02-20T13:55:49.044Z,20.3
2023-02-20T13:57:50.802Z,14.3
2023-02-20T13:58:53.294Z,18.1
2023-02-20T14:00:55.285Z,17.5
2023-02-20T14:02:56.802Z,24.1
2023-02-20T14:04:58.645Z,32.7
2023-02-20T14:07:03.547Z,20.9
2023-02-20T14:09:05.276Z,18.4
2023-02-20T14:11:07.131Z,27.8
2023-02-20T14:13:08.790Z,22.1
2023-02-20T14:15:10.524Z,13.8
2023-02-20T14:17:12.297Z,22
2023-02-20T14:19:14.066Z,24.1
2023-02-20T14:21:19.388Z,24.5
2023-02-20T14:23:20.796Z,23.4
2023-02-20T14:27:24.297Z,19.1
2023-02-20T14:29:26.042Z,22.9
2023-02-20T14:31:27.850Z,16.8
2023-02-20T14:33:29.535Z,27.1
2023-02-20T14:35:34.534Z,30
2023-02-20T14:37:36.290Z,18.2
2023-02-20T14:39:38.046Z,23.6
2023-02-20T14:45:43.405Z,21
2023-02-20T14:47:45.050Z,23.7
2023-02-20T14:49:50.025Z,13.6
2023-02-20T14:51:51.809Z,19.9
2023-02-20T14:53:53.512Z,21.7
2023-02-20T14:58:23.862Z,20.6
2023-02-20T15:00:25.609Z,17.7
2023-02-20T15:02:34.426Z,18.7
2023-02-20T15:04:32.352Z,22.8
2023-02-20T15:06:34.106Z,23.9
2023-02-20T15:08:35.960Z,16.2
2023-02-20T15:16:46.228Z,33.1
2023-02-20T15:18:49.973Z,33.5
2023-02-20T15:20:49.645Z,34.3
2023-02-20T15:22:51.397Z,37.4
2023-02-20T15:24:53.154Z,28.6
2023-02-20T15:26:54.898Z,26.3
2023-02-20T15:28:56.650Z,16.8
2023-02-20T15:31:01.666Z,29.5
2023-02-20T15:33:03.362Z,24.9
2023-02-20T15:35:05.136Z,32.8
2023-02-20T15:37:06.849Z,47.2
2023-02-20T15:39:08.603Z,36.1
2023-02-20T15:41:10.359Z,23
2023-02-20T15:43:23.937Z,23.1
2023-02-20T15:45:17.077Z,21.4
2023-02-20T15:47:18.840Z,36.3
2023-02-20T15:52:24.810Z,25.9
2023-02-20T15:58:35.417Z,25.2
2023-02-20T16:00:35.030Z,19.8
2023-02-20T16:02:36.870Z,17.4
2023-02-20T16:06:40.265Z,28.3
2023-02-20T16:08:41.960Z,23
2023-02-20T16:10:43.751Z,24
2023-02-20T16:12:48.702Z,20.9
2023-02-20T16:14:50.442Z,25.1
2023-02-20T16:16:52.168Z,22.5
2023-02-20T16:18:53.919Z,28.5
2023-02-20T16:20:55.874Z,33.7
2023-02-20T16:22:57.385Z,37.7
2023-02-20T16:24:59.124Z,22.7
2023-02-20T16:27:07.746Z,47.9
2023-02-20T16:29:05.833Z,38.3
2023-02-20T16:31:07.702Z,45.6
2023-02-20T16:33:09.310Z,33.3
2023-02-20T16:39:24.597Z,33.2
2023-02-20T16:46:37.616Z,34.5
2023-02-20T16:48:27.221Z,31.8
2023-02-20T16:50:28.958Z,31.7
2023-02-20T16:52:30.695Z,37.8
2023-02-20T16:54:35.675Z,39.6
2023-02-20T16:58:39.145Z,38.8
2023-02-20T17:00:50.999Z,21.5
2023-02-20T17:02:42.623Z,24.1
2023-02-20T17:10:52.806Z,9.4
2023-02-20T17:12:54.562Z,14.3
2023-02-20T17:14:56.290Z,31.2
2023-02-20T17:16:58.026Z,23.5
2023-02-20T17:18:59.730Z,34.5
2023-02-20T17:21:01.480Z,24.6
2023-02-20T17:23:06.435Z,26.2
2023-02-20T17:25:08.165Z,27.5
2023-02-20T17:27:09.968Z,26.9
2023-02-20T17:29:11.657Z,37
2023-02-20T17:31:13.787Z,31.7
2023-02-20T17:33:15.146Z,22.7
2023-02-20T17:35:16.878Z,30.9
2023-02-20T17:37:21.893Z,31.5
2023-02-20T17:39:23.632Z,27
2023-02-20T17:41:25.375Z,26.6
2023-02-20T17:44:29.669Z,25.8
2023-02-20T17:46:31.403Z,24.7
2023-02-20T17:50:38.072Z,27.1
2023-02-20T17:52:39.820Z,22.6
2023-02-20T17:54:41.549Z,27.6
2023-02-20T17:56:43.335Z,28.1
2023-02-20T17:58:45.052Z,31.3
2023-02-20T18:00:46.840Z,28.2
2023-02-20T18:02:48.545Z,32.5
2023-02-20T18:13:00.475Z,29.3
2023-02-20T18:15:02.214Z,33.6
2023-02-20T18:17:03.968Z,34.6
2023-02-20T18:21:10.640Z,19.7
2023-02-20T18:25:14.113Z,24.2
2023-02-20T18:27:15.879Z,24.9
2023-02-20T18:31:19.377Z,27.7
2023-02-20T18:33:24.325Z,35.3
2023-02-20T18:35:26.046Z,27.8
2023-02-20T18:37:27.798Z,24.2
2023-02-20T18:39:56.403Z,32.5
2023-02-20T18:41:58.266Z,34.1
2023-02-20T18:46:04.890Z,31.6
2023-02-20T18:48:06.623Z,37.8
2023-02-20T18:54:13.339Z,33.2
2023-02-20T18:58:16.764Z,35.3
2023-02-20T19:02:23.550Z,34
2023-02-20T19:04:25.202Z,24.4
2023-02-20T19:06:26.972Z,27
2023-02-20T19:08:28.652Z,11.1
2023-02-20T19:10:30.396Z,20.5
2023-02-20T19:16:38.910Z,17.2
2023-02-20T19:18:49.909Z,36.2
2023-02-20T19:20:42.301Z,27
2023-02-20T19:22:44.067Z,31.9
2023-02-20T19:24:45.777Z,15
2023-02-20T19:26:47.550Z,35.9
2023-02-20T19:28:52.522Z,37.4
2023-02-20T19:30:54.260Z,57.4
2023-02-20T19:32:55.970Z,32.4
2023-02-20T19:33:58.459Z,27.3
2023-02-20T19:36:00.190Z,16.4
2023-02-20T19:38:01.942Z,26.3
2023-02-20T19:40:03.651Z,26.6
2023-02-20T19:48:13.855Z,8.8
2023-02-20T19:50:15.587Z,38.3
2023-02-20T19:52:17.443Z,31.2
2023-02-20T19:54:19.061Z,34.4
2023-02-20T19:56:24.014Z,27.3
2023-02-20T19:58:25.737Z,33.3
2023-02-20T20:00:27.501Z,35.6
2023-02-20T20:02:29.273Z,23.7
2023-02-20T20:04:30.965Z,30
2023-02-20T20:06:32.697Z,35.7
2023-02-20T20:08:34.440Z,30.3
2023-02-20T20:10:39.414Z,27.4
2023-02-20T20:12:41.148Z,29.1
2023-02-20T20:14:42.845Z,27.5
2023-02-20T20:16:44.639Z,24.9
2023-02-20T20:18:46.329Z,27.7
2023-02-20T20:20:48.052Z,32.9
2023-02-20T20:24:54.768Z,25.3
2023-02-20T20:26:58.403Z,39.2
2023-02-20T20:28:58.209Z,39.3
2023-02-20T20:30:00.695Z,31
2023-02-20T20:32:02.545Z,34.5
2023-02-20T20:34:04.167Z,33
2023-02-20T20:36:05.885Z,34.2
2023-02-20T20:38:10.865Z,35.4
2023-02-20T20:40:12.596Z,39.7
2023-02-20T20:42:14.340Z,26.9
2023-02-20T20:44:16.065Z,34.8
2023-02-20T20:46:17.901Z,27.3
2023-02-20T20:48:19.532Z,31.5
2023-02-20T20:50:21.261Z,10.2
2023-02-20T20:52:26.228Z,29.8
2023-02-20T20:54:27.974Z,26.6
2023-02-20T20:56:29.711Z,23.5
2023-02-20T20:58:31.428Z,29.8
2023-02-20T21:00:33.172Z,28.1
2023-02-20T21:02:34.956Z,32.5
2023-02-20T21:04:36.650Z,39.7
2023-02-20T21:10:45.089Z,42.3
2023-02-20T21:14:48.548Z,47
2023-02-20T21:20:56.962Z,51.1
2023-02-20T21:26:02.896Z,43
2023-02-20T21:28:04.616Z,39
2023-02-20T21:30:06.400Z,32.8
2023-02-20T21:32:08.185Z,48.4
2023-02-20T21:34:13.046Z,34.2
2023-02-20T21:36:14.777Z,53.9
2023-02-20T21:38:16.508Z,49.1
2023-02-20T21:40:18.258Z,52.3
2023-02-20T21:42:19.980Z,45.6
2023-02-20T21:44:21.705Z,52.1
2023-02-20T21:48:28.407Z,41.2
2023-02-20T21:56:35.347Z,44.6
2023-02-20T22:04:45.504Z,50.6
2023-02-20T22:08:48.980Z,55.6
2023-02-20T22:10:50.701Z,53.3
2023-02-20T22:12:52.455Z,49.7
2023-02-20T22:14:54.198Z,55.9
2023-02-20T22:16:59.145Z,44.7
2023-02-20T22:19:00.873Z,57.6
2023-02-20T22:21:02.632Z,47.8
2023-02-20T22:27:34.664Z,35.8
2023-02-20T22:33:43.143Z,47.6
2023-02-20T22:35:44.888Z,59.9
2023-02-20T22:37:46.624Z,54.4
2023-02-20T22:39:48.341Z,68.6
2023-02-20T22:41:50.117Z,63.7
2023-02-20T22:43:55.065Z,50
2023-02-20T22:45:56.783Z,58.6
2023-02-20T22:56:05.485Z,34.8
2023-02-20T22:58:10.443Z,35.9
2023-02-20T23:00:12.171Z,48.7
2023-02-20T23:02:13.963Z,42.2
2023-02-20T23:04:15.661Z,43.6
2023-02-20T23:06:19.053Z,52.9
2023-02-20T23:08:19.213Z,22.4
2023-02-20T23:10:20.869Z,44
2023-02-20T23:12:25.861Z,55.3
2023-02-20T23:14:27.574Z,48.3
2023-02-20T23:16:29.331Z,57.2
2023-02-20T23:21:35.268Z,48.3
2023-02-20T23:23:37.003Z,61.6
2023-02-20T23:29:45.465Z,52.8
2023-02-20T23:31:47.266Z,26
2023-02-20T23:33:48.935Z,33.5
2023-02-20T23:37:52.405Z,48.9
2023-02-20T23:39:57.386Z,41.4
2023-02-20T23:41:59.126Z,36.7
2023-02-20T23:44:00.836Z,38.1
2023-02-20T23:46:02.661Z,39.6
2023-02-20T23:48:05.553Z,35.1
2023-02-20T23:50:06.076Z,34.4
2023-02-20T23:52:15.820Z,39.1
2023-02-20T23:54:12.758Z,34.4
2023-02-20T23:56:14.505Z,27.4
